Aérodrome :
LOGIN :

S'inscrire | Disclaimer

   EN    FR    IT 

 










Légende :    VFR   VFR Marginal   IFR   IFR Intensif   IFR Très Intensif
Visi : 
Plafond : 
>= 8 km
>= 3000ft
5 à 8 km
1000 à 3000 ft
1500m à 5 km
500 à 1000 ft
800 à 1500m
200 à 500 ft
< 800m
< 200 ft
Symboles :   Orages  Brouillard  Fortes neiges  Fortes précipitations  Vent > 20 kt
SIGMETs :   Divers  Orages  Givrage  Turbulence  Onde Orograph.  Cendres Volcan.







- Altitude de l'aérodrome : 602 ft
- Code IATA : NVS
- Voir les cartes d'approche


LFQG - Nevers

DERNIER METAR :
  • 201630Z AUTO 33008KT CAVOK 18/12 Q1022

METARs EXPIRÉS :
  • 201600Z AUTO 23005KT 200V270 CAVOK 19/09 Q1022
  • 201530Z AUTO 24005KT 200V280 9999 ///TCU 18/10 Q1022
  • 201500Z AUTO 19005KT 9999 FEW028/// SCT086/// BKN110/// ///CB 15/11 Q1023
  • 201430Z AUTO 17010KT 120V210 9999 -TSRA ///CB 15/09 Q1023
  • 201400Z AUTO 11019KT 070V130 9999 -TSRA ///CB 18/07 Q1023

TAF N/A
Pas de NOTAMs connus pour ce terrain.
2 SIGMETs publiés pour la FIR Paris (LFFF) :
 
Annulation du SIGMET 2 
LFFF SIGMET 3 VALID 201545/201700 LFPW
LFFF PARIS FIR/UIR CNL SIGMET 2 201500/201700=
SIGMET 2  ANNULÉ :
Orages fréquents
LFFF SIGMET 2 VALID 201500/201700 LFPW
LFFF PARIS FIR/UIR FRQ TS OBS WI N4630 E00330 - N4630 E00300 - N4715 E00200 - N4715 E00245 - N4630 E00330 TOP FL350 MOV SW 20KT NC=



MET'MAP, la Météo Aéronautique d'un coup d'oeil ! - Copyright ORBIFLY Décembre 2007 - Disclaimer

ORBIFLY MET'MAP TEAM :

Programmation & Développement : Alexandra Zaïnal
Conception & Développement : Baudouin d'Aumeries
Co-Programmation & Développement : Marc-Olivier Méhu
Soutien technique & logistique : Manuel Goepfert

Contact : metmap@orbifly.com




SOURCES & CREDITS :

   NOAA